Wetterdaten vom Samstag, 29. Januar 2022

Temperatur Taupunkt Windchill Luftfeuchte Luftdruck Solarstrahlung Regen ET
(Verdunstung von Wasser)
Wind
Max 2.7 °C
00:00
1.4 °C
00:00
2.6 °C
01:10
91%
00:00
1034.8 hPa
00:05
0 W/m²
00:00
15.5 km/h
00:40 km/h
Durchschnitt 2.5 °C 1.1 °C 0.2 °C 90% 1033.3 hPa 0 W/m² 0 mm 0 mm 9.1 km/h
Min 2.4 °C
02:55
0.8 °C
03:05
-4 °C
00:40
89%
02:55
1031.5 hPa
04:25
14.5 km/h (Böe)
03:35 km/h
Zeit
00:00 2.7 °C 1.4 °C 0.7 °C 91% 1034.7 hPa 0 W/m² 0.0 mm 0.000 mm 8.5 km/h
00:05 2.7 °C 1.4 °C -2.2 °C 91% 1034.8 hPa 0 W/m² 0.0 mm 0.000 mm 12.4 km/h
00:10 2.7 °C 1.4 °C -0.2 °C 91% 1034.7 hPa 0 W/m² 0.0 mm 0.000 mm 9.6 km/h
00:15 2.7 °C 1.4 °C -1.9 °C 91% 1034.6 hPa 0 W/m² 0.0 mm 0.000 mm 12.0 km/h
00:20 2.7 °C 1.4 °C 0.6 °C 91% 1034.5 hPa 0 W/m² 0.0 mm 0.000 mm 8.7 km/h
00:25 2.7 °C 1.4 °C 1.5 °C 91% 1034.5 hPa 0 W/m² 0.0 mm 0.000 mm 7.7 km/h
00:30 2.7 °C 1.4 °C -2.2 °C 91% 1034.4 hPa 0 W/m² 0.0 mm 0.000 mm 12.5 km/h
00:35 2.7 °C 1.4 °C -2.7 °C 91% 1034.6 hPa 0 W/m² 0.0 mm 0.000 mm 13.3 km/h
00:40 2.7 °C 1.4 °C -4.0 °C 91% 1034.4 hPa 0 W/m² 0.0 mm 0.000 mm 15.5 km/h
00:45 2.7 °C 1.4 °C -0.9 °C 91% 1034.4 hPa 0 W/m² 0.0 mm 0.000 mm 10.6 km/h
00:50 2.7 °C 1.4 °C -0.2 °C 91% 1034.3 hPa 0 W/m² 0.0 mm 0.000 mm 9.7 km/h
00:55 2.7 °C 1.4 °C -1.4 °C 91% 1034.2 hPa 0 W/m² 0.0 mm 0.000 mm 11.3 km/h
01:00 2.6 °C 1.3 °C -0.8 °C 91% 1034.1 hPa 0 W/m² 0.0 mm 0.000 mm 10.3 km/h
01:05 2.6 °C 1.3 °C 0.3 °C 91% 1034.1 hPa 0 W/m² 0.0 mm 0.000 mm 8.9 km/h
01:10 2.6 °C 1.3 °C 2.6 °C 91% 1034.1 hPa 0 W/m² 0.0 mm 0.000 mm 6.1 km/h
01:15 2.6 °C 1.3 °C 0.6 °C 91% 1033.9 hPa 0 W/m² 0.0 mm 0.000 mm 8.6 km/h
01:20 2.6 °C 1.3 °C -0.3 °C 91% 1033.9 hPa 0 W/m² 0.0 mm 0.000 mm 9.6 km/h
01:25 2.6 °C 1.3 °C -1.0 °C 91% 1033.9 hPa 0 W/m² 0.0 mm 0.000 mm 10.6 km/h
01:30 2.6 °C 1.3 °C 2.5 °C 91% 1033.7 hPa 0 W/m² 0.0 mm 0.000 mm 6.5 km/h
01:35 2.6 °C 1.3 °C 2.1 °C 91% 1033.6 hPa 0 W/m² 0.0 mm 0.000 mm 6.9 km/h
01:40 2.6 °C 1.3 °C -0.8 °C 91% 1033.6 hPa 0 W/m² 0.0 mm 0.000 mm 10.3 km/h
01:45 2.6 °C 1.3 °C 1.7 °C 91% 1033.7 hPa 0 W/m² 0.0 mm 0.000 mm 7.3 km/h
01:50 2.6 °C 1.3 °C 1.5 °C 91% 1033.6 hPa 0 W/m² 0.0 mm 0.000 mm 7.5 km/h
01:55 2.6 °C 1.3 °C 1.1 °C 91% 1033.6 hPa 0 W/m² 0.0 mm 0.000 mm 8.0 km/h
02:00 2.6 °C 1.3 °C -0.3 °C 91% 1033.5 hPa 0 W/m² 0.0 mm 0.000 mm 9.6 km/h
02:05 2.5 °C 1.0 °C -0.7 °C 90% 1033.5 hPa 0 W/m² 0.0 mm 0.000 mm 10.0 km/h
02:10 2.5 °C 1.0 °C -1.1 °C 90% 1033.6 hPa 0 W/m² 0.0 mm 0.000 mm 10.6 km/h
02:15 2.5 °C 1.0 °C -2.7 °C 90% 1033.7 hPa 0 W/m² 0.0 mm 0.000 mm 12.9 km/h
02:20 2.5 °C 1.0 °C -2.3 °C 90% 1033.7 hPa 0 W/m² 0.0 mm 0.000 mm 12.2 km/h
02:25 2.5 °C 1.0 °C 2.5 °C 90% 1033.6 hPa 0 W/m² 0.0 mm 0.000 mm 5.9 km/h
02:30 2.5 °C 1.0 °C 0.3 °C 90% 1033.4 hPa 0 W/m² 0.0 mm 0.000 mm 8.8 km/h
02:35 2.5 °C 1.0 °C -0.4 °C 90% 1033.2 hPa 0 W/m² 0.0 mm 0.000 mm 9.6 km/h
02:40 2.5 °C 1.0 °C 1.0 °C 90% 1033.2 hPa 0 W/m² 0.0 mm 0.000 mm 8.0 km/h
02:45 2.5 °C 1.0 °C 1.0 °C 90% 1033.1 hPa 0 W/m² 0.0 mm 0.000 mm 8.0 km/h
02:50 2.5 °C 1.0 °C 1.2 °C 90% 1033.1 hPa 0 W/m² 0.0 mm 0.000 mm 7.8 km/h
02:55 2.5 °C 0.9 °C 1.3 °C 89% 1032.8 hPa 0 W/m² 0.0 mm 0.000 mm 7.6 km/h
03:00 2.5 °C 0.9 °C 2.5 °C 89% 1032.6 hPa 0 W/m² 0.0 mm 0.000 mm 5.5 km/h
03:05 2.4 °C 0.8 °C 2.0 °C 89% 1032.6 hPa 0 W/m² 0.0 mm 0.000 mm 6.8 km/h
03:10 2.4 °C 0.8 °C 2.4 °C 89% 1032.5 hPa 0 W/m² 0.0 mm 0.000 mm 6.0 km/h
03:15 2.4 °C 0.8 °C 1.9 °C 89% 1032.3 hPa 0 W/m² 0.0 mm 0.000 mm 6.9 km/h
03:20 2.4 °C 0.8 °C 2.1 °C 89% 1032.2 hPa 0 W/m² 0.0 mm 0.000 mm 6.7 km/h
03:25 2.5 °C 0.9 °C 1.6 °C 89% 1032.1 hPa 0 W/m² 0.0 mm 0.000 mm 7.3 km/h
03:30 2.5 °C 0.9 °C 2.5 °C 89% 1031.8 hPa 0 W/m² 0.0 mm 0.000 mm 5.8 km/h
03:35 2.5 °C 0.9 °C 2.5 °C 89% 1031.8 hPa 0 W/m² 0.0 mm 0.000 mm 5.2 km/h
03:40 2.5 °C 0.9 °C 2.4 °C 89% 1031.8 hPa 0 W/m² 0.0 mm 0.000 mm 6.5 km/h
03:45 2.5 °C 0.9 °C 2.5 °C 89% 1031.8 hPa 0 W/m² 0.0 mm 0.000 mm 5.3 km/h
03:50 2.4 °C 0.8 °C 0.4 °C 89% 1031.8 hPa 0 W/m² 0.0 mm 0.000 mm 8.5 km/h
03:55 2.4 °C 0.8 °C 1.6 °C 89% 1031.9 hPa 0 W/m² 0.0 mm 0.000 mm 7.2 km/h
04:00 2.4 °C 0.8 °C -1.8 °C 89% 1031.8 hPa 0 W/m² 0.0 mm 0.000 mm 11.3 km/h
04:05 2.4 °C 0.8 °C -2.8 °C 89% 1031.8 hPa 0 W/m² 0.0 mm 0.000 mm 12.8 km/h
04:10 2.4 °C 0.8 °C -2.1 °C 89% 1031.7 hPa 0 W/m² 0.0 mm 0.000 mm 11.8 km/h
04:15 2.4 °C 0.8 °C -2.7 °C 89% 1031.8 hPa 0 W/m² 0.0 mm 0.000 mm 12.7 km/h
04:20 2.4 °C 0.8 °C -0.3 °C 89% 1031.6 hPa 0 W/m² 0.0 mm 0.000 mm 9.4 km/h
04:25 2.4 °C 0.8 °C -1.3 °C 89% 1031.5 hPa 0 W/m² 0.0 mm 0.000 mm 10.7 km/h